createdAt,value
2019-05-06T00:01:53.946Z,51.80
2019-05-06T00:04:24.517Z,51.90
2019-05-06T00:06:54.837Z,51.80
2019-05-06T00:09:24.108Z,51.60
2019-05-06T00:12:14.469Z,51.90
2019-05-06T00:14:43.629Z,51.50
2019-05-06T00:17:14.462Z,51.50
2019-05-06T00:19:44.679Z,51.50
2019-05-06T00:22:14.237Z,51.70
2019-05-06T00:24:44.532Z,51.70
2019-05-06T00:27:26.997Z,51.70
2019-05-06T00:29:56.614Z,51.80
2019-05-06T00:32:25.060Z,51.70
2019-05-06T00:34:54.678Z,51.70
2019-05-06T00:37:24.130Z,51.40
2019-05-06T00:40:06.601Z,51.50
2019-05-06T00:42:36.688Z,51.30
2019-05-06T00:45:06.738Z,51.40
2019-05-06T00:47:35.320Z,51.40
2019-05-06T00:50:05.809Z,51.40
2019-05-06T00:52:34.528Z,51.60
2019-05-06T00:55:04.144Z,51.60
2019-05-06T00:57:44.549Z,51.50
2019-05-06T01:00:15.378Z,52.20
2019-05-06T01:02:43.995Z,52.10
2019-05-06T01:05:14.087Z,51.50
2019-05-06T01:07:43.983Z,51.40
2019-05-06T01:10:15.056Z,51.40
2019-05-06T01:12:45.143Z,51.10
2019-05-06T01:15:23.902Z,51.40
2019-05-06T01:17:53.838Z,51.30
2019-05-06T01:20:24.727Z,51.40
2019-05-06T01:22:54.440Z,51.50
2019-05-06T01:25:23.758Z,51.50
2019-05-06T01:27:54.029Z,51.60
2019-05-06T01:30:24.313Z,51.50
2019-05-06T01:32:54.345Z,51.60
2019-05-06T01:35:24.504Z,51.30
2019-05-06T01:37:55.055Z,51.20
2019-05-06T01:40:31.874Z,51.40
2019-05-06T01:43:08.206Z,51.20
2019-05-06T01:45:36.722Z,51.20
2019-05-06T01:48:05.164Z,51.20
2019-05-06T01:50:34.451Z,51.30
2019-05-06T01:53:04.993Z,51.50
2019-05-06T01:55:34.304Z,51.40
2019-05-06T01:58:04.990Z,52.10
2019-05-06T02:00:34.434Z,51.50
2019-05-06T02:03:04.080Z,51.40
2019-05-06T02:05:33.687Z,51.30
2019-05-06T02:08:04.013Z,50.90
2019-05-06T02:10:34.492Z,51.10
2019-05-06T02:13:03.890Z,51.00
2019-05-06T02:15:34.513Z,51.30
2019-05-06T02:18:04.114Z,51.10
2019-05-06T02:20:34.262Z,51.30
2019-05-06T02:23:04.365Z,51.40
2019-05-06T02:25:34.461Z,51.50
2019-05-06T02:28:03.947Z,51.40
2019-05-06T02:30:36.500Z,51.50
2019-05-06T02:33:15.525Z,51.40
2019-05-06T02:35:45.755Z,51.30
2019-05-06T02:38:28.104Z,51.10
2019-05-06T02:40:55.379Z,51.00
2019-05-06T02:43:23.888Z,51.30
2019-05-06T02:45:53.074Z,51.20
2019-05-06T02:48:29.585Z,51.10
2019-05-06T02:51:00.044Z,51.30
2019-05-06T02:53:28.564Z,51.40
2019-05-06T02:55:57.082Z,52.00
2019-05-06T02:58:25.598Z,51.40
2019-05-06T03:00:54.233Z,51.40
2019-05-06T03:03:23.373Z,51.30
2019-05-06T03:05:53.205Z,51.10
2019-05-06T03:08:23.713Z,51.00
2019-05-06T03:10:53.425Z,50.90
2019-05-06T03:13:23.580Z,51.10
2019-05-06T03:15:54.116Z,51.00
2019-05-06T03:18:23.633Z,51.00
2019-05-06T03:20:54.743Z,51.30
2019-05-06T03:23:35.066Z,51.30
2019-05-06T03:26:06.635Z,51.20
2019-05-06T03:28:34.364Z,51.70
2019-05-06T03:31:06.628Z,51.20
2019-05-06T03:33:50.225Z,51.20
2019-05-06T03:36:15.415Z,51.60
2019-05-06T03:38:34.648Z,50.90
2019-05-06T03:41:03.589Z,51.00
2019-05-06T03:43:33.751Z,50.90
2019-05-06T03:46:06.669Z,51.10
2019-05-06T03:48:44.292Z,51.00
2019-05-06T03:51:13.672Z,51.20
2019-05-06T03:53:43.366Z,51.20
2019-05-06T03:56:16.882Z,51.20
2019-05-06T03:58:43.907Z,51.80
2019-05-06T04:01:13.352Z,51.30
2019-05-06T04:03:47.773Z,51.20
2019-05-06T04:06:13.788Z,51.00
2019-05-06T04:08:44.149Z,50.80
2019-05-06T04:11:15.998Z,51.10
2019-05-06T04:13:48.354Z,50.90
2019-05-06T04:16:30.162Z,51.10
2019-05-06T04:19:04.097Z,51.00
2019-05-06T04:21:53.197Z,51.20
2019-05-06T04:24:23.776Z,51.20
2019-05-06T04:26:57.345Z,51.20
2019-05-06T04:29:27.434Z,51.20
2019-05-06T04:31:55.965Z,51.20
2019-05-06T04:34:24.736Z,51.20
2019-05-06T04:36:53.684Z,50.90
2019-05-06T04:39:23.383Z,50.90
2019-05-06T04:41:53.914Z,51.00
2019-05-06T04:44:23.796Z,51.10
2019-05-06T04:46:54.416Z,51.00
2019-05-06T04:49:23.784Z,50.90
2019-05-06T04:52:13.850Z,51.00
2019-05-06T04:54:44.092Z,51.00
2019-05-06T04:57:12.982Z,51.00
2019-05-06T04:59:43.248Z,51.10
2019-05-06T05:02:13.325Z,51.10
2019-05-06T05:04:43.266Z,51.20
2019-05-06T05:07:12.777Z,51.10
2019-05-06T05:09:42.987Z,50.80
2019-05-06T05:12:22.807Z,51.00
2019-05-06T05:15:09.312Z,50.90
2019-05-06T05:17:42.329Z,51.00
2019-05-06T05:20:13.346Z,51.10
2019-05-06T05:22:42.429Z,51.00
2019-05-06T05:25:12.242Z,51.00
2019-05-06T05:27:42.092Z,51.00
2019-05-06T05:30:12.567Z,50.70
2019-05-06T05:32:42.857Z,50.80
2019-05-06T05:35:12.712Z,50.70
2019-05-06T05:37:41.987Z,50.90
2019-05-06T05:40:12.900Z,51.00
2019-05-06T05:42:48.930Z,51.00
2019-05-06T05:45:17.443Z,51.50
2019-05-06T05:47:46.937Z,50.90
2019-05-06T05:50:26.582Z,51.00
2019-05-06T05:52:55.366Z,50.90
2019-05-06T05:55:23.890Z,50.80
2019-05-06T05:57:52.362Z,50.90
2019-05-06T06:00:23.585Z,51.00
2019-05-06T06:02:52.984Z,51.20
2019-05-06T06:05:22.072Z,50.90
2019-05-06T06:07:52.883Z,50.90
2019-05-06T06:10:29.015Z,50.80
2019-05-06T06:12:57.550Z,51.00
2019-05-06T06:15:42.229Z,51.10
2019-05-06T06:18:28.393Z,51.10
2019-05-06T06:21:17.732Z,50.80
2019-05-06T06:23:39.355Z,50.70
2019-05-06T06:26:08.159Z,51.00
2019-05-06T06:28:36.690Z,51.10
2019-05-06T06:31:11.943Z,51.00
2019-05-06T06:33:42.785Z,50.80
2019-05-06T06:36:14.811Z,50.90
2019-05-06T06:39:02.000Z,51.00
2019-05-06T06:41:32.317Z,51.00
2019-05-06T06:44:05.215Z,51.10
2019-05-06T06:46:33.753Z,51.10
2019-05-06T06:49:23.146Z,50.90
2019-05-06T06:51:53.222Z,50.80
2019-05-06T06:54:22.820Z,50.80
2019-05-06T06:57:08.335Z,51.00
2019-05-06T06:59:34.456Z,50.80
2019-05-06T07:02:06.026Z,50.80
2019-05-06T07:04:52.579Z,50.70
2019-05-06T07:07:22.887Z,51.40
2019-05-06T07:09:52.609Z,50.90
2019-05-06T07:12:23.264Z,50.70
2019-05-06T07:14:53.253Z,50.80
2019-05-06T07:17:22.843Z,50.80
2019-05-06T07:19:53.406Z,50.70
2019-05-06T07:22:23.513Z,50.60
2019-05-06T07:24:52.774Z,50.40
2019-05-06T07:27:23.059Z,50.60
2019-05-06T07:29:52.382Z,51.70
2019-05-06T07:32:23.035Z,53.00
2019-05-06T07:34:53.152Z,51.90
2019-05-06T07:37:22.138Z,54.00
2019-05-06T07:39:53.078Z,54.10
2019-05-06T07:42:23.357Z,53.80
2019-05-06T07:44:53.616Z,53.00
2019-05-06T07:47:42.659Z,54.80
2019-05-06T07:50:12.869Z,55.40
2019-05-06T07:52:42.665Z,53.20
2019-05-06T07:55:11.987Z,54.70
2019-05-06T07:57:42.382Z,53.60
2019-05-06T08:00:13.277Z,56.10
2019-05-06T08:02:42.571Z,56.40
2019-05-06T08:05:12.712Z,56.50
2019-05-06T08:07:42.307Z,54.50
2019-05-06T08:10:13.561Z,54.90
2019-05-06T08:12:42.876Z,56.60
2019-05-06T08:15:12.675Z,56.70
2019-05-06T08:17:42.534Z,55.30
2019-05-06T08:20:13.019Z,55.00
2019-05-06T08:22:46.242Z,54.90
2019-05-06T08:25:14.744Z,54.90
2019-05-06T08:27:43.280Z,55.30
2019-05-06T08:30:13.042Z,55.20
2019-05-06T08:32:42.499Z,55.30
2019-05-06T08:35:13.371Z,55.20
2019-05-06T08:37:43.057Z,55.40
2019-05-06T08:40:12.203Z,56.40
2019-05-06T08:42:42.622Z,58.30
2019-05-06T08:45:12.815Z,55.90
2019-05-06T08:47:42.501Z,55.80
2019-05-06T08:50:13.711Z,56.10
2019-05-06T08:53:00.490Z,56.50
2019-05-06T08:55:49.210Z,56.90
2019-05-06T08:58:17.802Z,58.40
2019-05-06T09:01:04.781Z,57.80
2019-05-06T09:03:33.250Z,59.00
2019-05-06T09:06:03.138Z,57.40
2019-05-06T09:08:32.498Z,56.90
2019-05-06T09:11:03.058Z,56.90
2019-05-06T09:13:32.650Z,57.50
2019-05-06T09:16:02.491Z,57.30
2019-05-06T09:18:32.928Z,56.60
2019-05-06T09:21:02.971Z,56.80
2019-05-06T09:23:32.705Z,57.70
2019-05-06T09:26:02.660Z,57.00
2019-05-06T09:28:42.630Z,56.70
2019-05-06T09:31:15.848Z,56.20
2019-05-06T09:33:46.025Z,56.20
2019-05-06T09:36:14.762Z,56.20
2019-05-06T09:38:43.291Z,55.80
2019-05-06T09:41:12.477Z,55.40
2019-05-06T09:43:43.139Z,55.60
2019-05-06T09:46:12.920Z,55.20
2019-05-06T09:48:59.483Z,55.20
2019-05-06T09:51:27.926Z,55.50
2019-05-06T09:54:03.776Z,55.60
2019-05-06T09:56:39.648Z,55.10
2019-05-06T09:59:08.163Z,55.00
2019-05-06T10:01:36.943Z,55.70
2019-05-06T10:04:08.678Z,55.50
2019-05-06T10:06:36.884Z,55.30
2019-05-06T10:09:08.827Z,55.10
2019-05-06T10:11:37.570Z,55.10
2019-05-06T10:14:06.103Z,55.00
2019-05-06T10:16:34.630Z,54.80
2019-05-06T10:19:03.649Z,54.70
2019-05-06T10:21:33.498Z,54.70
2019-05-06T10:24:02.316Z,54.40
2019-05-06T10:26:32.855Z,54.60
2019-05-06T10:29:09.248Z,54.80
2019-05-06T10:31:48.804Z,54.90
2019-05-06T10:34:26.767Z,54.90
2019-05-06T10:37:18.073Z,54.40
2019-05-06T10:39:39.380Z,54.70
2019-05-06T10:42:13.046Z,54.10
2019-05-06T10:44:47.198Z,54.20
2019-05-06T10:47:16.111Z,54.30
2019-05-06T10:49:44.647Z,54.30
2019-05-06T10:52:21.910Z,54.40
2019-05-06T10:54:51.100Z,54.60
2019-05-06T10:57:22.085Z,54.50
2019-05-06T10:59:51.176Z,54.30
2019-05-06T11:02:37.805Z,54.00
2019-05-06T11:05:07.105Z,54.00
2019-05-06T11:07:35.619Z,53.60
2019-05-06T11:10:06.243Z,53.60
2019-05-06T11:12:34.725Z,53.50
2019-05-06T11:15:03.953Z,53.50
2019-05-06T11:17:32.692Z,53.50
2019-05-06T11:20:06.215Z,53.80
2019-05-06T11:22:32.749Z,53.60
2019-05-06T11:25:03.115Z,54.20
2019-05-06T11:27:33.269Z,53.80
2019-05-06T11:30:03.745Z,53.70
2019-05-06T11:32:42.055Z,53.70
2019-05-06T11:35:12.312Z,53.40
2019-05-06T11:37:49.758Z,53.20
2019-05-06T11:40:16.763Z,53.10
2019-05-06T11:42:43.902Z,53.20
2019-05-06T11:45:12.887Z,53.30
2019-05-06T11:47:42.179Z,53.40
2019-05-06T11:50:13.002Z,53.40
2019-05-06T11:52:43.344Z,53.40
2019-05-06T11:55:12.602Z,52.80
2019-05-06T11:57:44.886Z,53.00
2019-05-06T12:00:17.003Z,53.10
2019-05-06T12:02:48.581Z,53.20
2019-05-06T12:05:15.776Z,52.70
2019-05-06T12:08:00.389Z,53.00
2019-05-06T12:10:15.086Z,52.30
2019-05-06T12:12:43.677Z,52.70
2019-05-06T12:15:12.749Z,52.50
2019-05-06T12:17:42.121Z,52.40
2019-05-06T12:20:13.066Z,52.60
2019-05-06T12:22:42.510Z,52.70
2019-05-06T12:25:14.936Z,53.10
2019-05-06T12:27:44.236Z,52.60
2019-05-06T12:30:16.597Z,52.40
2019-05-06T12:32:46.714Z,52.10
2019-05-06T12:35:15.317Z,52.30
2019-05-06T12:37:45.697Z,51.90
2019-05-06T12:40:14.543Z,52.20
2019-05-06T12:42:47.416Z,51.90
2019-05-06T12:45:27.261Z,52.20
2019-05-06T12:48:03.262Z,52.30
2019-05-06T12:50:33.283Z,52.30
2019-05-06T12:53:02.023Z,52.10
2019-05-06T12:55:30.620Z,52.10
2019-05-06T12:57:59.103Z,51.80
2019-05-06T13:00:29.424Z,51.60
2019-05-06T13:02:57.960Z,51.80
2019-05-06T13:05:26.434Z,51.30
2019-05-06T13:07:54.897Z,51.30
2019-05-06T13:10:24.041Z,51.30
2019-05-06T13:12:54.417Z,51.40
2019-05-06T13:15:24.357Z,52.00
2019-05-06T13:17:53.306Z,51.90
2019-05-06T13:20:22.856Z,51.90
2019-05-06T13:23:09.589Z,51.60
2019-05-06T13:25:35.618Z,51.60
2019-05-06T13:28:06.129Z,51.60
2019-05-06T13:30:34.979Z,51.30
2019-05-06T13:33:07.870Z,51.60
2019-05-06T13:35:36.638Z,51.30
2019-05-06T13:38:05.425Z,51.20
2019-05-06T13:40:35.156Z,51.10
2019-05-06T13:43:06.113Z,51.10
2019-05-06T13:45:35.542Z,51.80
2019-05-06T13:48:08.894Z,51.60
2019-05-06T13:50:44.925Z,51.50
2019-05-06T13:53:14.757Z,51.40
2019-05-06T13:55:43.412Z,51.50
2019-05-06T13:58:12.563Z,51.30
2019-05-06T14:00:42.550Z,51.50
2019-05-06T14:03:11.232Z,51.20
2019-05-06T14:05:39.786Z,50.80
2019-05-06T14:08:08.533Z,50.80
2019-05-06T14:10:37.230Z,51.00
2019-05-06T14:13:05.756Z,50.80
2019-05-06T14:15:34.230Z,51.40
2019-05-06T14:18:02.888Z,51.50
2019-05-06T14:20:33.742Z,51.30
2019-05-06T14:23:02.626Z,51.00
2019-05-06T14:25:49.264Z,51.20
2019-05-06T14:28:19.691Z,51.30
2019-05-06T14:30:50.038Z,51.20
2019-05-06T14:33:20.216Z,50.80
2019-05-06T14:35:48.767Z,50.40
2019-05-06T14:38:17.236Z,50.50
2019-05-06T14:41:08.169Z,51.00
2019-05-06T14:43:36.870Z,50.80
2019-05-06T14:46:05.411Z,51.20
2019-05-06T14:48:34.028Z,50.90
2019-05-06T14:51:04.018Z,50.70
2019-05-06T14:53:33.250Z,50.90
2019-05-06T14:56:06.475Z,51.00
2019-05-06T14:58:34.939Z,51.00
2019-05-06T15:01:03.704Z,50.60
2019-05-06T15:03:32.691Z,50.70
2019-05-06T15:06:02.567Z,50.70
2019-05-06T15:08:32.259Z,50.60
2019-05-06T15:11:03.160Z,51.00
2019-05-06T15:13:32.241Z,51.00
2019-05-06T15:16:03.556Z,50.80
2019-05-06T15:18:32.114Z,50.90
2019-05-06T15:21:29.242Z,51.10
2019-05-06T15:23:52.946Z,51.60
2019-05-06T15:26:22.891Z,50.70
2019-05-06T15:28:52.783Z,51.00
2019-05-06T15:31:30.793Z,50.90
2019-05-06T15:34:02.577Z,50.60
2019-05-06T15:36:32.859Z,50.60
2019-05-06T15:39:02.419Z,50.40
2019-05-06T15:41:32.270Z,50.20
2019-05-06T15:44:02.847Z,50.30
2019-05-06T15:46:32.333Z,50.40
2019-05-06T15:49:02.938Z,50.40
2019-05-06T15:51:55.569Z,50.30
2019-05-06T15:54:24.100Z,50.10
2019-05-06T15:56:53.367Z,50.10
2019-05-06T15:59:22.910Z,50.10
2019-05-06T16:01:53.207Z,50.20
2019-05-06T16:04:22.892Z,49.60
2019-05-06T16:06:52.890Z,50.00
2019-05-06T16:09:23.463Z,50.00
2019-05-06T16:11:53.458Z,50.10
2019-05-06T16:14:23.133Z,50.10
2019-05-06T16:16:52.759Z,50.10
2019-05-06T16:19:22.861Z,50.20
2019-05-06T16:21:52.549Z,50.20
2019-05-06T16:24:22.884Z,50.30
2019-05-06T16:26:52.735Z,50.20
2019-05-06T16:29:23.315Z,50.40
2019-05-06T16:31:51.966Z,50.40
2019-05-06T16:34:22.661Z,50.20
2019-05-06T16:36:50.796Z,50.10
2019-05-06T16:39:19.644Z,50.40
2019-05-06T16:41:48.319Z,50.30
2019-05-06T16:44:16.875Z,50.30
2019-05-06T16:46:45.449Z,50.30
2019-05-06T16:49:14.280Z,50.50
2019-05-06T16:51:44.236Z,50.40
2019-05-06T16:54:12.976Z,50.40
2019-05-06T16:56:44.611Z,50.30
2019-05-06T16:59:13.372Z,50.20
2019-05-06T17:01:43.710Z,50.80
2019-05-06T17:04:17.209Z,50.10
2019-05-06T17:06:49.641Z,50.00
2019-05-06T17:09:23.832Z,50.10
2019-05-06T17:11:49.434Z,50.00
2019-05-06T17:14:18.143Z,50.00
2019-05-06T17:16:46.741Z,50.80
2019-05-06T17:19:15.587Z,50.10
2019-05-06T17:21:44.164Z,50.10
2019-05-06T17:24:13.171Z,49.90
2019-05-06T17:26:42.733Z,50.00
2019-05-06T17:29:24.632Z,50.00
2019-05-06T17:31:54.159Z,49.80
2019-05-06T17:34:24.424Z,49.80
2019-05-06T17:36:54.622Z,49.80
2019-05-06T17:39:23.820Z,49.80
2019-05-06T17:41:52.463Z,50.10
2019-05-06T17:44:22.821Z,50.00
2019-05-06T17:47:02.658Z,50.10
2019-05-06T17:49:33.122Z,50.20
2019-05-06T17:52:04.417Z,50.30
2019-05-06T17:54:33.091Z,50.30
2019-05-06T17:57:04.425Z,50.40
2019-05-06T17:59:33.169Z,50.30
2019-05-06T18:02:03.916Z,50.30
2019-05-06T18:04:34.392Z,50.20
2019-05-06T18:07:02.648Z,50.10
2019-05-06T18:09:33.459Z,50.20
2019-05-06T18:12:03.155Z,50.20
2019-05-06T18:14:33.135Z,50.00
2019-05-06T18:17:03.645Z,50.20
2019-05-06T18:19:33.133Z,50.30
2019-05-06T18:22:02.716Z,50.20
2019-05-06T18:24:33.223Z,50.20
2019-05-06T18:27:02.664Z,50.10
2019-05-06T18:29:33.483Z,50.10
2019-05-06T18:32:04.080Z,50.10
2019-05-06T18:34:33.166Z,50.70
2019-05-06T18:37:03.162Z,50.00
2019-05-06T18:39:33.706Z,50.00
2019-05-06T18:42:15.483Z,49.90
2019-05-06T18:44:33.428Z,49.80
2019-05-06T18:47:02.852Z,50.20
2019-05-06T18:49:33.714Z,50.10
2019-05-06T18:52:02.807Z,50.10
2019-05-06T18:54:33.870Z,50.10
2019-05-06T18:57:04.352Z,50.10
2019-05-06T18:59:33.022Z,50.10
2019-05-06T19:02:02.313Z,50.00
2019-05-06T19:04:33.417Z,50.00
2019-05-06T19:07:10.486Z,50.40
2019-05-06T19:09:43.209Z,49.60
2019-05-06T19:12:12.755Z,49.50
2019-05-06T19:14:43.203Z,49.50
2019-05-06T19:17:13.198Z,49.90
2019-05-06T19:19:42.665Z,50.00
2019-05-06T19:22:13.769Z,49.90
2019-05-06T19:24:42.426Z,49.90
2019-05-06T19:27:12.781Z,49.80
2019-05-06T19:29:43.336Z,49.80
2019-05-06T19:32:12.306Z,49.90
2019-05-06T19:34:42.658Z,49.70
2019-05-06T19:37:11.101Z,49.70
2019-05-06T19:39:43.065Z,49.70
2019-05-06T19:42:12.883Z,49.70
2019-05-06T19:44:43.108Z,49.60
2019-05-06T19:47:13.221Z,49.90
2019-05-06T19:49:42.408Z,50.10
2019-05-06T19:52:11.152Z,49.90
2019-05-06T19:54:42.344Z,50.00
2019-05-06T19:57:12.148Z,49.90
2019-05-06T19:59:42.398Z,49.90
2019-05-06T20:02:12.826Z,49.80
2019-05-06T20:04:44.255Z,49.80
2019-05-06T20:07:30.344Z,49.80
2019-05-06T20:10:03.362Z,49.80
2019-05-06T20:12:39.497Z,49.90
2019-05-06T20:15:26.912Z,50.40
2019-05-06T20:17:55.470Z,49.90
2019-05-06T20:20:24.342Z,50.10
2019-05-06T20:22:52.786Z,50.00
2019-05-06T20:25:22.051Z,50.10
2019-05-06T20:27:52.676Z,50.00
2019-05-06T20:30:22.081Z,49.80
2019-05-06T20:32:52.116Z,50.00
2019-05-06T20:35:22.398Z,50.10
2019-05-06T20:37:53.248Z,50.10
2019-05-06T20:40:22.887Z,50.00
2019-05-06T20:42:51.773Z,50.00
2019-05-06T20:45:22.366Z,49.90
2019-05-06T20:47:52.546Z,50.20
2019-05-06T20:50:22.584Z,50.20
2019-05-06T20:52:52.033Z,50.10
2019-05-06T20:55:22.878Z,50.20
2019-05-06T20:57:52.890Z,50.30
2019-05-06T21:00:23.056Z,50.10
2019-05-06T21:02:53.421Z,50.10
2019-05-06T21:05:22.829Z,50.20
2019-05-06T21:07:52.567Z,50.10
2019-05-06T21:10:22.049Z,50.20
2019-05-06T21:12:53.021Z,50.20
2019-05-06T21:15:22.915Z,50.00
2019-05-06T21:17:51.340Z,50.40
2019-05-06T21:20:20.369Z,50.40
2019-05-06T21:22:49.410Z,50.40
2019-05-06T21:25:18.508Z,50.30
2019-05-06T21:27:47.017Z,50.30
2019-05-06T21:30:16.271Z,50.30
2019-05-06T21:32:45.136Z,50.10
2019-05-06T21:35:14.423Z,50.40
2019-05-06T21:37:42.872Z,50.20
2019-05-06T21:40:12.393Z,50.10
2019-05-06T21:42:43.178Z,50.20
2019-05-06T21:45:12.497Z,50.10
2019-05-06T21:47:44.390Z,50.10
2019-05-06T21:50:12.118Z,50.20
2019-05-06T21:52:42.835Z,50.20
2019-05-06T21:55:13.200Z,50.30
2019-05-06T21:57:42.252Z,50.30
2019-05-06T22:00:17.381Z,50.20
2019-05-06T22:02:45.904Z,50.20
2019-05-06T22:05:14.489Z,50.50
2019-05-06T22:07:43.518Z,50.30
2019-05-06T22:10:36.323Z,50.30
2019-05-06T22:13:04.954Z,50.30
2019-05-06T22:15:33.404Z,50.00
2019-05-06T22:18:02.538Z,50.30
2019-05-06T22:21:15.806Z,49.90
2019-05-06T22:23:58.150Z,50.40
2019-05-06T22:26:27.416Z,50.40
2019-05-06T22:28:56.118Z,50.30
2019-05-06T22:34:29.696Z,50.30
2019-05-06T22:36:58.143Z,50.20
2019-05-06T22:39:44.927Z,50.20
2019-05-06T22:42:13.523Z,50.20
2019-05-06T22:44:42.892Z,50.00
2019-05-06T22:47:12.166Z,50.20
2019-05-06T22:49:40.835Z,50.40
2019-05-06T22:52:09.280Z,50.00
2019-05-06T22:54:38.128Z,50.30
2019-05-06T22:57:06.582Z,50.30
2019-05-06T22:59:35.036Z,50.30
2019-05-06T23:02:08.178Z,50.30
2019-05-06T23:04:38.267Z,50.40
2019-05-06T23:07:06.721Z,50.40
2019-05-06T23:09:36.681Z,50.30
2019-05-06T23:12:14.464Z,50.30
2019-05-06T23:14:43.354Z,49.90
2019-05-06T23:17:12.651Z,50.10
2019-05-06T23:19:42.827Z,50.30
2019-05-06T23:22:12.217Z,50.30
2019-05-06T23:24:40.858Z,50.30
2019-05-06T23:27:09.324Z,50.30
2019-05-06T23:29:37.915Z,50.30
2019-05-06T23:32:13.753Z,50.30
2019-05-06T23:34:40.670Z,50.30
2019-05-06T23:37:12.942Z,50.30
2019-05-06T23:40:22.167Z,50.20
2019-05-06T23:43:27.162Z,50.30
2019-05-06T23:46:32.457Z,50.20
2019-05-06T23:49:37.842Z,50.30
2019-05-06T23:52:49.081Z,50.40
2019-05-06T23:55:54.283Z,50.40
2019-05-06T23:58:29.174Z,50.40
